Time;durP1;ratioP1;P1;durP2;ratioP2;P2;SDS_P1;SDS_P2;PMS_P1;PMS_P2;Temp;Humidity;BMP_temperature;BMP_pressure;BME280_temperature;BME280_humidity;BME280_pressure;Samples;Min_cycle;Max_cycle;Signal;HPM_P1;HPM_P2
2023/06/28 00:01:14;;;;;;;11.30;3.97;;;;;;;;;;5036045;28;20143;-85
2023/06/28 00:03:40;;;;;;;10.52;3.90;;;;;;;;;;5051074;28;20056;-86
2023/06/28 00:06:06;;;;;;;14.73;4.15;;;;;;;;;;5039259;28;20604;-85
2023/06/28 00:08:32;;;;;;;11.75;3.85;;;;;;;;;;5038133;28;20052;-81
2023/06/28 00:10:58;;;;;;;;;;;;;;;;;;5072445;28;20512;-82
2023/06/28 00:13:24;;;;;;;11.38;4.07;;;;;;;;;;5068854;28;19921;-86
2023/06/28 00:15:51;;;;;;;15.73;4.13;;;;;;;;;;5054396;28;20033;-86
2023/06/28 00:18:17;;;;;;;10.95;4.15;;;;;;;;;;5053909;28;20036;-86
2023/06/28 00:20:43;;;;;;;9.77;4.60;;;;;;;;;;5071840;28;20481;-85
2023/06/28 00:23:09;;;;;;;11.27;4.53;;;;;;;;;;5071857;28;20459;-86
2023/06/28 00:25:36;;;;;;;9.43;4.53;;;;;;;;;;5071806;28;20051;-82
2023/06/28 00:28:02;;;;;;;9.13;4.30;;;;;;;;;;5055009;28;20075;-87
2023/06/28 00:30:28;;;;;;;;;;;;;;;;;;5072218;28;20045;-87
2023/06/28 00:32:54;;;;;;;11.57;4.70;;;;;;;;;;5051684;28;20609;-87
2023/06/28 00:35:20;;;;;;;10.77;4.55;;;;;;;;;;5054585;28;20048;-87
2023/06/28 00:37:46;;;;;;;11.18;4.85;;;;;;;;;;5070060;28;20043;-86
2023/06/28 00:40:12;;;;;;;11.82;4.53;;;;;;;;;;5071909;28;20056;-87
2023/06/28 00:42:38;;;;;;;;;;;;;;;;;;5055022;28;20143;-87
2023/06/28 00:45:04;;;;;;;13.43;4.82;;;;;;;;;;5055298;28;20040;-86
2023/06/28 00:47:31;;;;;;;14.20;4.80;;;;;;;;;;5054772;28;20511;-85
2023/06/28 00:49:57;;;;;;;18.67;5.40;;;;;;;;;;5054219;28;20050;-86
2023/06/28 00:52:23;;;;;;;;;;;;;;;;;;5057623;28;20048;-85
2023/06/28 00:54:50;;;;;;;8.88;4.13;;;;;;;;;;5060428;28;19924;-86
2023/06/28 00:57:16;;;;;;;6.93;3.08;;;;;;;;;;5069027;28;20091;-86
2023/06/28 00:59:43;;;;;;;11.38;3.83;;;;;;;;;;5051044;28;20430;-87
2023/06/28 01:02:10;;;;;;;9.27;3.80;;;;;;;;;;5054908;28;20053;-87
2023/06/28 01:04:37;;;;;;;9.88;4.20;;;;;;;;;;5053778;28;20477;-83
2023/06/28 01:07:03;;;;;;;11.68;4.20;;;;;;;;;;5054328;28;20114;-86
2023/06/28 01:09:30;;;;;;;12.23;3.92;;;;;;;;;;5053871;28;20075;-86
2023/06/28 01:11:57;;;;;;;12.63;3.45;;;;;;;;;;5054111;28;20122;-86
2023/06/28 01:14:24;;;;;;;10.63;4.53;;;;;;;;;;5050628;28;20045;-85
2023/06/28 01:16:54;;;;;;;7.78;4.28;;;;;;;;;;5050774;28;20052;-87
2023/06/28 01:19:22;;;;;;;12.10;4.13;;;;;;;;;;5051311;28;20079;-86
2023/06/28 01:21:49;;;;;;;12.82;5.03;;;;;;;;;;5053591;28;20045;-87
2023/06/28 01:24:16;;;;;;;10.73;4.50;;;;;;;;;;5054037;28;20488;-88
2023/06/28 01:26:42;;;;;;;8.80;4.95;;;;;;;;;;5052501;28;20067;-87
2023/06/28 01:29:08;;;;;;;12.88;4.50;;;;;;;;;;5050680;28;20136;-87
2023/06/28 01:31:36;;;;;;;9.57;4.50;;;;;;;;;;5051221;28;20090;-86
2023/06/28 01:34:02;;;;;;;10.57;4.43;;;;;;;;;;5058164;28;20059;-86
2023/06/28 01:36:29;;;;;;;10.68;5.20;;;;;;;;;;5070985;28;20091;-86
2023/06/28 01:38:56;;;;;;;10.70;4.35;;;;;;;;;;5069162;28;20135;-85
2023/06/28 01:41:23;;;;;;;10.77;4.53;;;;;;;;;;5069983;28;20041;-87
2023/06/28 01:43:49;;;;;;;13.85;5.28;;;;;;;;;;5051580;28;20084;-87
2023/06/28 01:46:15;;;;;;;12.32;4.93;;;;;;;;;;5070536;28;20074;-87
2023/06/28 01:48:41;;;;;;;19.58;5.40;;;;;;;;;;5069090;28;20431;-84
2023/06/28 01:51:07;;;;;;;13.13;5.15;;;;;;;;;;5049947;28;20048;-81
2023/06/28 01:53:33;;;;;;;10.80;4.70;;;;;;;;;;5033398;28;20090;-86
2023/06/28 01:56:00;;;;;;;15.20;5.90;;;;;;;;;;5033780;28;20155;-87
2023/06/28 01:58:26;;;;;;;;;;;;;;;;;;5034069;28;20481;-85
2023/06/28 02:00:52;;;;;;;13.32;5.28;;;;;;;;;;5053442;28;20121;-86
2023/06/28 02:03:18;;;;;;;11.63;5.22;;;;;;;;;;5069560;28;20040;-86
2023/06/28 02:05:44;;;;;;;;;;;;;;;;;;5070430;28;20394;-84
2023/06/28 02:08:10;;;;;;;13.43;6.10;;;;;;;;;;5052705;28;19920;-85
2023/06/28 02:10:36;;;;;;;15.20;5.80;;;;;;;;;;5050111;28;20136;-87
2023/06/28 02:13:02;;;;;;;;;;;;;;;;;;5050147;28;20072;-87
2023/06/28 02:15:28;;;;;;;12.65;5.57;;;;;;;;;;5035644;28;20096;-86
2023/06/28 02:17:56;;;;;;;13.98;5.53;;;;;;;;;;5032282;28;20048;-88
2023/06/28 02:20:22;;;;;;;14.13;5.47;;;;;;;;;;5063934;28;20052;-88
2023/06/28 02:22:48;;;;;;;13.15;6.15;;;;;;;;;;5052714;28;20058;-88
2023/06/28 02:25:14;;;;;;;10.68;5.68;;;;;;;;;;5053724;28;20052;-86
2023/06/28 02:27:40;;;;;;;13.10;5.13;;;;;;;;;;5053185;28;20048;-87
2023/06/28 02:30:06;;;;;;;;;;;;;;;;;;5053949;28;20056;-86
2023/06/28 02:32:32;;;;;;;19.20;5.75;;;;;;;;;;5050977;28;19934;-85
2023/06/28 02:34:58;;;;;;;;;;;;;;;;;;5069530;28;20048;-85
2023/06/28 02:37:25;;;;;;;15.30;6.15;;;;;;;;;;5055241;28;19921;-87
2023/06/28 02:39:51;;;;;;;14.38;6.50;;;;;;;;;;5049118;28;20080;-86
2023/06/28 02:42:17;;;;;;;12.50;6.13;;;;;;;;;;5033716;28;20048;-86
2023/06/28 02:44:44;;;;;;;15.20;6.10;;;;;;;;;;5050159;28;20049;-86
2023/06/28 02:47:10;;;;;;;15.73;6.93;;;;;;;;;;5068015;28;20131;-87
2023/06/28 02:49:36;;;;;;;;;;;;;;;;;;5069593;28;20114;-88
2023/06/28 02:52:02;;;;;;;17.17;7.07;;;;;;;;;;5053079;28;20057;-86
2023/06/28 02:54:28;;;;;;;14.30;6.45;;;;;;;;;;5071475;28;20161;-86
2023/06/28 02:56:54;;;;;;;19.27;6.50;;;;;;;;;;5056907;28;20058;-86
2023/06/28 02:59:20;;;;;;;15.60;6.43;;;;;;;;;;5053655;28;20497;-86
2023/06/28 03:01:46;;;;;;;20.08;6.90;;;;;;;;;;5037486;28;20190;-87
2023/06/28 03:04:12;;;;;;;15.38;7.03;;;;;;;;;;5052289;28;20130;-86
2023/06/28 03:06:39;;;;;;;17.30;6.95;;;;;;;;;;5041464;28;20049;-87
2023/06/28 03:09:05;;;;;;;16.60;6.63;;;;;;;;;;5055366;28;20056;-87
2023/06/28 03:11:31;;;;;;;16.75;6.50;;;;;;;;;;5057245;28;20055;-86
2023/06/28 03:13:57;;;;;;;18.38;6.38;;;;;;;;;;5073131;28;20074;-87
2023/06/28 03:16:23;;;;;;;;;;;;;;;;;;5074150;28;20045;-87
2023/06/28 03:18:49;;;;;;;18.17;6.70;;;;;;;;;;5055074;28;19926;-87
2023/06/28 03:21:15;;;;;;;;;;;;;;;;;;5057050;28;20048;-87
2023/06/28 03:23:41;;;;;;;17.67;6.75;;;;;;;;;;5052904;28;19999;-86
2023/06/28 03:26:07;;;;;;;;;;;;;;;;;;5036945;28;20497;-87
2023/06/28 03:28:33;;;;;;;15.18;7.65;;;;;;;;;;5036595;28;19971;-86
2023/06/28 03:30:59;;;;;;;19.45;6.85;;;;;;;;;;5036610;28;20052;-87
2023/06/28 03:33:25;;;;;;;;;;;;;;;;;;5054958;28;20044;-85
2023/06/28 03:35:51;;;;;;;16.52;6.63;;;;;;;;;;5071376;28;19920;-87
2023/06/28 03:38:17;;;;;;;12.70;6.20;;;;;;;;;;5036853;28;20045;-85
2023/06/28 03:40:43;;;;;;;15.23;7.03;;;;;;;;;;5056695;28;20091;-85
2023/06/28 03:43:09;;;;;;;18.50;7.90;;;;;;;;;;5055127;28;20048;-85
2023/06/28 03:45:36;;;;;;;16.52;7.03;;;;;;;;;;5039923;28;20048;-85
2023/06/28 03:48:02;;;;;;;16.88;7.57;;;;;;;;;;5071454;28;20052;-86
2023/06/28 03:50:28;;;;;;;;;;;;;;;;;;5059405;28;20045;-87
2023/06/28 03:52:54;;;;;;;15.68;7.28;;;;;;;;;;5052047;28;19924;-83
2023/06/28 03:55:20;;;;;;;15.00;6.90;;;;;;;;;;5052463;28;20049;-87
2023/06/28 03:57:46;;;;;;;15.40;7.35;;;;;;;;;;5066365;28;20484;-86
2023/06/28 04:00:12;;;;;;;;;;;;;;;;;;5056159;28;20059;-87
2023/06/28 04:02:39;;;;;;;15.95;7.70;;;;;;;;;;5071965;28;19924;-85
2023/06/28 04:05:05;;;;;;;16.38;7.60;;;;;;;;;;5071407;28;20045;-87
2023/06/28 04:07:31;;;;;;;;;;;;;;;;;;5073159;28;20036;-85
2023/06/28 04:09:58;;;;;;;15.75;7.90;;;;;;;;;;5054984;28;19924;-83
2023/06/28 04:12:24;;;;;;;18.58;7.50;;;;;;;;;;5069096;28;20087;-87
2023/06/28 04:14:52;;;;;;;14.15;7.35;;;;;;;;;;5042744;28;20041;-87
2023/06/28 04:17:18;;;;;;;16.90;6.68;;;;;;;;;;5035816;28;20129;-87
2023/06/28 04:19:44;;;;;;;15.55;6.85;;;;;;;;;;5035232;28;20052;-87
2023/06/28 04:22:10;;;;;;;15.68;6.90;;;;;;;;;;5048329;28;20131;-87
2023/06/28 04:24:37;;;;;;;14.40;7.05;;;;;;;;;;5055489;28;20048;-88
2023/06/28 04:27:03;;;;;;;17.60;7.38;;;;;;;;;;5038800;28;20087;-86
2023/06/28 04:29:29;;;;;;;;;;;;;;;;;;5039241;28;20055;-87
2023/06/28 04:32:01;;;;;;;12.45;6.78;;;;;;;;;;5055945;28;20015;-86
2023/06/28 04:34:27;;;;;;;15.52;7.43;;;;;;;;;;5054153;28;20439;-86
2023/06/28 04:36:55;;;;;;;14.02;6.95;;;;;;;;;;5052282;28;20408;-87
2023/06/28 04:39:22;;;;;;;12.85;7.15;;;;;;;;;;5051006;28;20886;-85
2023/06/28 04:41:48;;;;;;;;;;;;;;;;;;5058710;28;20454;-85
2023/06/28 04:44:14;;;;;;;14.77;6.60;;;;;;;;;;5071310;28;20023;-87
2023/06/28 04:46:44;;;;;;;;;;;;;;;;;;5055977;28;20497;-86
2023/06/28 04:49:10;;;;;;;13.57;6.68;;;;;;;;;;5070295;28;19989;-87
2023/06/28 04:51:37;;;;;;;15.27;5.82;;;;;;;;;;5071722;28;20056;-88
2023/06/28 04:54:02;;;;;;;;;;;;;;;;;;5054246;28;20467;-82
2023/06/28 04:56:29;;;;;;;12.25;5.75;;;;;;;;;;5071284;28;19924;-86
2023/06/28 04:58:56;;;;;;;9.95;5.22;;;;;;;;;;5061648;28;20057;-86
2023/06/28 05:01:22;;;;;;;;;;;;;;;;;;5051739;28;20507;-87
2023/06/28 05:03:48;;;;;;;11.38;5.50;;;;;;;;;;5050547;28;19928;-86
2023/06/28 05:06:14;;;;;;;;;;;;;;;;;;5051510;28;20048;-86
2023/06/28 05:08:40;;;;;;;13.55;5.72;;;;;;;;;;5069339;28;19943;-87
2023/06/28 05:11:07;;;;;;;13.40;5.35;;;;;;;;;;5051293;28;20037;-85
2023/06/28 05:13:33;;;;;;;11.02;4.82;;;;;;;;;;5051396;28;20057;-87
2023/06/28 05:15:59;;;;;;;13.30;5.63;;;;;;;;;;5034967;28;20139;-87
2023/06/28 05:18:25;;;;;;;;;;;;;;;;;;5033079;28;20811;-88
2023/06/28 05:20:51;;;;;;;14.43;5.25;;;;;;;;;;5053614;28;19924;-87
2023/06/28 05:23:18;;;;;;;13.10;5.78;;;;;;;;;;5053843;28;20091;-88
2023/06/28 05:25:45;;;;;;;10.90;5.13;;;;;;;;;;5071277;28;20044;-87
2023/06/28 05:28:15;;;;;;;12.32;4.88;;;;;;;;;;5061127;28;20423;-87
2023/06/28 05:30:42;;;;;;;8.65;4.78;;;;;;;;;;5051256;28;20049;-87
2023/06/28 05:33:08;;;;;;;15.52;5.32;;;;;;;;;;5033341;28;20053;-84
2023/06/28 05:35:34;;;;;;;11.65;4.90;;;;;;;;;;5050967;28;20401;-86
2023/06/28 05:38:01;;;;;;;7.28;3.35;;;;;;;;;;5034078;28;20470;-87
2023/06/28 05:40:28;;;;;;;8.70;3.83;;;;;;;;;;5050652;28;20647;-87
2023/06/28 05:42:54;;;;;;;8.25;3.17;;;;;;;;;;5068320;28;20401;-86
2023/06/28 05:45:22;;;;;;;7.45;3.10;;;;;;;;;;5060666;28;20041;-87
2023/06/28 05:47:50;;;;;;;6.68;3.40;;;;;;;;;;5049917;28;20100;-87
2023/06/28 05:50:16;;;;;;;7.38;3.15;;;;;;;;;;5053693;28;20520;-86
2023/06/28 05:52:45;;;;;;;7.60;2.95;;;;;;;;;;5053497;28;20080;-86
2023/06/28 05:55:12;;;;;;;6.13;2.88;;;;;;;;;;5070002;28;20044;-86
2023/06/28 05:57:39;;;;;;;6.72;3.03;;;;;;;;;;5045499;28;20509;-86
2023/06/28 06:00:06;;;;;;;8.70;3.17;;;;;;;;;;5050357;28;20102;-86
2023/06/28 06:02:33;;;;;;;10.55;2.85;;;;;;;;;;5050022;28;20060;-85
2023/06/28 06:04:59;;;;;;;8.07;2.90;;;;;;;;;;5049487;28;20052;-86
2023/06/28 06:07:25;;;;;;;8.57;3.13;;;;;;;;;;5064707;28;20108;-86
2023/06/28 06:09:51;;;;;;;9.38;2.80;;;;;;;;;;5049325;28;20140;-87
2023/06/28 06:12:18;;;;;;;;;;;;;;;;;;5050225;28;20130;-85
2023/06/28 06:14:44;;;;;;;7.93;3.17;;;;;;;;;;5033761;28;19924;-88
2023/06/28 06:17:10;;;;;;;;;;;;;;;;;;5050707;28;20296;-83
2023/06/28 06:19:36;;;;;;;8.18;3.00;;;;;;;;;;5032231;28;20340;-87
2023/06/28 06:22:02;;;;;;;;;;;;;;;;;;5034148;28;20052;-87
2023/06/28 06:24:28;;;;;;;8.90;3.47;;;;;;;;;;5032943;28;19924;-87
2023/06/28 06:26:54;;;;;;;6.90;3.40;;;;;;;;;;5052706;28;20140;-87
2023/06/28 06:29:21;;;;;;;6.97;3.25;;;;;;;;;;5049679;28;20045;-86
2023/06/28 06:31:46;;;;;;;;;;;;;;;;;;5034388;28;20489;-85
2023/06/28 06:34:13;;;;;;;8.88;3.65;;;;;;;;;;5049123;28;19931;-81
2023/06/28 06:36:38;;;;;;;;;;;;;;;;;;5070021;28;20058;-86
2023/06/28 06:39:04;;;;;;;11.23;4.18;;;;;;;;;;5052639;28;19924;-87
2023/06/28 06:41:30;;;;;;;;;;;;;;;;;;5053348;28;20045;-86
2023/06/28 06:43:57;;;;;;;10.40;3.97;;;;;;;;;;5052854;28;19973;-87
2023/06/28 06:46:23;;;;;;;13.88;4.70;;;;;;;;;;5069483;28;20485;-87
2023/06/28 06:48:50;;;;;;;9.50;4.15;;;;;;;;;;5066070;28;20053;-86
2023/06/28 06:51:16;;;;;;;9.05;4.18;;;;;;;;;;5064068;28;20505;-81
2023/06/28 06:53:42;;;;;;;8.90;4.28;;;;;;;;;;5049490;28;20060;-87
2023/06/28 06:56:08;;;;;;;;;;;;;;;;;;5050449;28;20095;-86
2023/06/28 06:58:34;;;;;;;11.90;4.75;;;;;;;;;;5048933;28;20017;-87
2023/06/28 07:01:00;;;;;;;;;;;;;;;;;;5053390;28;20048;-87
2023/06/28 07:03:26;;;;;;;9.82;4.75;;;;;;;;;;5068033;28;19920;-85
2023/06/28 07:05:52;;;;;;;13.07;5.80;;;;;;;;;;5036749;28;20055;-87
2023/06/28 07:08:18;;;;;;;;;;;;;;;;;;5052687;28;20092;-82
2023/06/28 07:10:44;;;;;;;10.82;5.28;;;;;;;;;;5067971;28;20005;-74
2023/06/28 07:13:10;;;;;;;;;;;;;;;;;;5070462;28;20099;-68
2023/06/28 07:15:36;;;;;;;11.95;4.78;;;;;;;;;;5068802;28;20402;-73
2023/06/28 07:18:03;;;;;;;14.32;5.65;;;;;;;;;;5068289;28;20052;-72
2023/06/28 07:20:29;;;;;;;12.50;5.45;;;;;;;;;;5070042;28;20083;-75
2023/06/28 07:22:55;;;;;;;;;;;;;;;;;;5069228;28;20056;-79
2023/06/28 07:25:21;;;;;;;15.15;5.68;;;;;;;;;;5052215;28;19920;-77
2023/06/28 07:27:47;;;;;;;;;;;;;;;;;;5062968;28;20045;-79
2023/06/28 07:30:14;;;;;;;12.65;5.43;;;;;;;;;;5065119;28;19951;-79
2023/06/28 07:32:40;;;;;;;13.80;5.90;;;;;;;;;;5067931;28;20041;-79
2023/06/28 07:35:06;;;;;;;11.73;5.75;;;;;;;;;;5035241;28;20045;-79
2023/06/28 07:37:32;;;;;;;14.70;6.30;;;;;;;;;;5051345;28;20106;-79
2023/06/28 07:39:58;;;;;;;12.65;5.53;;;;;;;;;;5054247;28;20134;-79
2023/06/28 07:42:26;;;;;;;17.88;6.32;;;;;;;;;;5055543;28;20044;-78
2023/06/28 07:44:52;;;;;;;19.33;6.97;;;;;;;;;;5055125;28;20473;-79
2023/06/28 07:47:18;;;;;;;;;;;;;;;;;;5036547;28;20088;-79
2023/06/28 07:49:44;;;;;;;18.40;7.75;;;;;;;;;;5059332;28;19974;-78
2023/06/28 07:52:11;;;;;;;;;;;;;;;;;;5073102;28;20044;-77
2023/06/28 07:54:37;;;;;;;20.10;8.30;;;;;;;;;;5066057;28;19921;-77
2023/06/28 07:57:03;;;;;;;18.98;8.27;;;;;;;;;;5052063;28;20049;-78
2023/06/28 07:59:30;;;;;;;22.20;10.23;;;;;;;;;;5054801;28;20045;-77
2023/06/28 08:01:56;;;;;;;;;;;;;;;;;;5072928;28;20102;-77
2023/06/28 08:04:22;;;;;;;22.38;9.55;;;;;;;;;;5071584;28;20359;-78
2023/06/28 08:06:49;;;;;;;22.92;9.48;;;;;;;;;;5051961;28;20080;-77
2023/06/28 08:09:15;;;;;;;21.98;9.40;;;;;;;;;;5052110;28;20506;-76
2023/06/28 08:11:41;;;;;;;22.15;9.15;;;;;;;;;;5061462;28;20051;-78
2023/06/28 08:14:07;;;;;;;;;;;;;;;;;;5070722;28;20047;-70
2023/06/28 08:16:34;;;;;;;19.98;8.82;;;;;;;;;;5071214;28;19924;-71
2023/06/28 08:19:00;;;;;;;20.42;8.52;;;;;;;;;;5070620;28;20123;-78
2023/06/28 08:21:26;;;;;;;21.13;8.80;;;;;;;;;;5071942;28;20044;-80
2023/06/28 08:23:52;;;;;;;;;;;;;;;;;;5055260;28;20067;-77
2023/06/28 08:26:18;;;;;;;19.83;8.82;;;;;;;;;;5072023;28;19927;-78
2023/06/28 08:28:44;;;;;;;;;;;;;;;;;;5054866;28;20052;-77
2023/06/28 08:31:10;;;;;;;23.63;10.27;;;;;;;;;;5070686;28;20581;-79
2023/06/28 08:33:36;;;;;;;;;;;;;;;;;;5035958;28;20084;-79
2023/06/28 08:36:03;;;;;;;17.13;8.43;;;;;;;;;;5054608;28;19951;-79
2023/06/28 08:38:28;;;;;;;;;;;;;;;;;;5083334;28;20040;-80
2023/06/28 08:40:54;;;;;;;22.20;9.90;;;;;;;;;;5078694;28;19931;-79
2023/06/28 08:43:22;;;;;;;19.17;8.52;;;;;;;;;;5069179;28;20504;-80
2023/06/28 08:45:48;;;;;;;21.98;8.82;;;;;;;;;;5090990;28;20491;-79
2023/06/28 08:48:14;;;;;;;23.95;9.25;;;;;;;;;;5073399;28;20036;-79
2023/06/28 08:50:43;;;;;;;21.75;8.63;;;;;;;;;;5073700;28;20105;-78
2023/06/28 08:53:12;;;;;;;20.73;9.30;;;;;;;;;;5070489;28;20048;-78
2023/06/28 08:55:38;;;;;;;22.45;9.30;;;;;;;;;;5071460;28;20428;-79
2023/06/28 08:58:06;;;;;;;18.80;8.75;;;;;;;;;;5056408;28;20123;-79
2023/06/28 09:00:32;;;;;;;19.33;8.18;;;;;;;;;;5053885;28;20059;-79
2023/06/28 09:02:58;;;;;;;18.35;9.05;;;;;;;;;;5060297;28;20420;-79
2023/06/28 09:05:24;;;;;;;;;;;;;;;;;;5074503;28;20052;-79
2023/06/28 09:07:51;;;;;;;19.02;8.98;;;;;;;;;;5089877;28;20442;-76
2023/06/28 09:10:18;;;;;;;22.73;9.93;;;;;;;;;;5064939;28;20128;-78
2023/06/28 09:12:47;;;;;;;22.50;9.80;;;;;;;;;;5082249;28;20075;-81
2023/06/28 09:15:14;;;;;;;16.23;8.60;;;;;;;;;;5067809;28;20048;-81
2023/06/28 09:17:40;;;;;;;;;;;;;;;;;;5082926;28;20045;-81
2023/06/28 09:20:16;;;;;;;16.95;8.40;;;;;;;;;;5070614;28;19932;-81
2023/06/28 09:22:42;;;;;;;;;;;;;;;;;;5066279;28;20040;-82
2023/06/28 09:25:08;;;;;;;14.88;8.30;;;;;;;;;;5073677;28;19927;-82
2023/06/28 09:27:34;;;;;;;17.77;8.48;;;;;;;;;;5072993;28;20051;-81
2023/06/28 09:30:00;;;;;;;;;;;;;;;;;;5074422;28;20044;-82
2023/06/28 09:32:41;;;;;;;16.25;8.07;;;;;;;;;;5090457;28;20384;-82
2023/06/28 09:35:11;;;;;;;16.77;8.20;;;;;;;;;;5073733;28;20125;-82
2023/06/28 09:37:38;;;;;;;18.00;8.63;;;;;;;;;;5089232;28;20044;-82
2023/06/28 09:40:07;;;;;;;16.95;9.68;;;;;;;;;;5072019;28;20060;-82
2023/06/28 09:42:46;;;;;;;19.48;8.80;;;;;;;;;;5063966;28;20044;-81
2023/06/28 09:45:23;;;;;;;19.05;9.60;;;;;;;;;;5054366;28;20105;-82
2023/06/28 09:48:00;;;;;;;19.60;9.75;;;;;;;;;;5079056;28;20607;-83
2023/06/28 09:50:36;;;;;;;20.60;9.90;;;;;;;;;;5088203;28;20075;-83
2023/06/28 09:53:02;;;;;;;;;;;;;;;;;;5090464;28;20106;-82
2023/06/28 09:55:28;;;;;;;20.90;10.02;;;;;;;;;;5072954;28;19923;-82
2023/06/28 09:57:55;;;;;;;21.60;10.68;;;;;;;;;;5085647;28;20044;-83
2023/06/28 10:00:23;;;;;;;25.40;11.35;;;;;;;;;;5042321;28;20045;-78
2023/06/28 10:02:49;;;;;;;19.65;10.65;;;;;;;;;;5063971;28;20690;-79
2023/06/28 10:05:16;;;;;;;27.05;11.88;;;;;;;;;;5059875;28;20075;-78
2023/06/28 10:07:42;;;;;;;24.27;11.88;;;;;;;;;;5075211;28;20055;-81
2023/06/28 10:10:09;;;;;;;24.70;11.73;;;;;;;;;;5052650;28;20049;-79
2023/06/28 10:12:36;;;;;;;30.67;12.63;;;;;;;;;;5066352;28;20518;-78
2023/06/28 10:15:04;;;;;;;24.02;11.93;;;;;;;;;;5089408;28;20043;-79
2023/06/28 10:17:34;;;;;;;29.02;12.80;;;;;;;;;;5072677;28;20044;-79
2023/06/28 10:20:00;;;;;;;30.38;12.95;;;;;;;;;;5056300;28;21488;-79
2023/06/28 10:22:26;;;;;;;26.45;13.05;;;;;;;;;;5057498;28;20052;-78
2023/06/28 10:24:52;;;;;;;;;;;;;;;;;;5063171;28;20049;-79
2023/06/28 10:27:19;;;;;;;26.20;13.20;;;;;;;;;;5084446;28;19977;-77
2023/06/28 10:29:47;;;;;;;30.15;13.13;;;;;;;;;;5075783;28;20232;-78
2023/06/28 10:32:14;;;;;;;24.60;12.73;;;;;;;;;;5072930;28;20138;-80
2023/06/28 10:34:41;;;;;;;28.25;13.95;;;;;;;;;;5088652;28;20044;-80
2023/06/28 10:37:07;;;;;;;28.45;13.35;;;;;;;;;;5072472;28;20072;-74
2023/06/28 10:39:35;;;;;;;;;;;;;;;;;;5088814;28;20050;-75
2023/06/28 10:42:01;;;;;;;30.48;12.75;;;;;;;;;;5078400;28;20166;-75
2023/06/28 10:44:27;;;;;;;24.70;13.10;;;;;;;;;;5061529;28;20044;-73
2023/06/28 10:46:53;;;;;;;;;;;;;;;;;;5075153;28;20048;-73
2023/06/28 10:49:21;;;;;;;25.30;13.13;;;;;;;;;;5084053;28;19920;-72
2023/06/28 10:51:49;;;;;;;26.42;13.10;;;;;;;;;;5075008;28;20151;-71
2023/06/28 10:54:16;;;;;;;24.30;13.23;;;;;;;;;;5065658;28;20108;-78
2023/06/28 10:56:41;;;;;;;;;;;;;;;;;;5065284;28;20051;-81
2023/06/28 10:59:08;;;;;;;27.58;12.75;;;;;;;;;;5080579;28;19927;-79
2023/06/28 11:01:49;;;;;;;24.52;13.00;;;;;;;;;;5064275;28;20064;-80
2023/06/28 11:04:16;;;;;;;26.20;13.32;;;;;;;;;;5057203;28;20074;-79
2023/06/28 11:06:42;;;;;;;29.17;14.00;;;;;;;;;;5063091;28;20041;-80
2023/06/28 11:09:15;;;;;;;22.05;13.05;;;;;;;;;;5067632;28;20086;-80
2023/06/28 11:11:41;;;;;;;22.55;12.55;;;;;;;;;;5077809;28;20404;-80
2023/06/28 11:14:07;;;;;;;;;;;;;;;;;;5089039;28;20453;-79
2023/06/28 11:16:36;;;;;;;26.13;13.48;;;;;;;;;;5092774;28;19930;-80
2023/06/28 11:19:14;;;;;;;27.65;12.57;;;;;;;;;;5085287;28;20036;-79
2023/06/28 11:21:40;;;;;;;27.15;14.35;;;;;;;;;;5055673;28;20074;-79
2023/06/28 11:24:06;;;;;;;22.33;12.60;;;;;;;;;;5067459;28;20633;-80
2023/06/28 11:26:32;;;;;;;;;;;;;;;;;;5085960;28;20080;-81
2023/06/28 11:28:58;;;;;;;22.60;11.90;;;;;;;;;;5078511;28;19928;-81
2023/06/28 11:31:24;;;;;;;;;;;;;;;;;;5076003;28;20106;-80
2023/06/28 11:33:52;;;;;;;23.73;12.88;;;;;;;;;;5070366;28;20388;-80
2023/06/28 11:36:18;;;;;;;21.27;12.13;;;;;;;;;;5051554;28;20620;-83
2023/06/28 11:38:44;;;;;;;;;;;;;;;;;;5070164;28;20384;-82
2023/06/28 11:41:11;;;;;;;20.63;12.27;;;;;;;;;;5091819;28;19920;-85
2023/06/28 11:43:37;;;;;;;24.70;12.60;;;;;;;;;;5058570;28;20047;-82
2023/06/28 11:46:03;;;;;;;;;;;;;;;;;;5075340;28;20055;-83
2023/06/28 11:48:29;;;;;;;25.13;13.40;;;;;;;;;;5089246;28;19920;-81
2023/06/28 11:50:58;;;;;;;24.88;12.68;;;;;;;;;;5075477;28;20091;-82
2023/06/28 11:53:25;;;;;;;19.63;12.23;;;;;;;;;;5067573;28;20406;-82
2023/06/28 11:55:54;;;;;;;23.13;13.05;;;;;;;;;;5066132;28;20044;-83
2023/06/28 11:58:28;;;;;;;26.23;13.20;;;;;;;;;;5064461;28;20059;-82
2023/06/28 12:00:54;;;;;;;18.88;12.40;;;;;;;;;;5064062;28;20570;-81
2023/06/28 12:03:20;;;;;;;;;;;;;;;;;;5071683;28;20393;-81
2023/06/28 12:05:53;;;;;;;18.05;11.35;;;;;;;;;;5089704;28;19920;-81
2023/06/28 12:08:19;;;;;;;20.77;12.38;;;;;;;;;;5090412;28;20059;-80
2023/06/28 12:10:45;;;;;;;;;;;;;;;;;;5051576;28;20053;-77
2023/06/28 12:13:21;;;;;;;19.95;12.35;;;;;;;;;;5078427;28;19931;-80
2023/06/28 12:15:48;;;;;;;20.30;12.27;;;;;;;;;;5074046;28;20037;-82
2023/06/28 12:18:14;;;;;;;16.75;11.82;;;;;;;;;;5065237;28;20131;-81
2023/06/28 12:20:40;;;;;;;;;;;;;;;;;;5064706;28;20051;-80
2023/06/28 12:23:12;;;;;;;17.08;11.05;;;;;;;;;;5090516;28;19923;-86
2023/06/28 12:25:42;;;;;;;21.38;13.02;;;;;;;;;;5091716;28;20043;-84
2023/06/28 12:28:12;;;;;;;17.30;12.32;;;;;;;;;;5072825;28;20703;-84
2023/06/28 12:30:38;;;;;;;20.40;12.52;;;;;;;;;;5085979;28;20040;-81
2023/06/28 12:33:04;;;;;;;;;;;;;;;;;;5059978;28;20093;-84
2023/06/28 12:35:30;;;;;;;18.23;12.25;;;;;;;;;;5071449;28;19951;-85
2023/06/28 12:37:56;;;;;;;;;;;;;;;;;;5058639;28;20782;-82
2023/06/28 12:40:24;;;;;;;16.55;12.13;;;;;;;;;;5069166;28;19962;-80
2023/06/28 12:43:09;;;;;;;18.50;12.20;;;;;;;;;;5051485;28;20048;-87
2023/06/28 12:45:40;;;;;;;20.48;13.40;;;;;;;;;;5065775;28;20048;-85
2023/06/28 12:48:06;;;;;;;20.67;12.27;;;;;;;;;;5066430;28;20048;-81
2023/06/28 12:50:32;;;;;;;;;;;;;;;;;;5037336;28;20044;-84
2023/06/28 12:52:58;;;;;;;19.80;11.98;;;;;;;;;;5068628;28;19928;-83
2023/06/28 12:55:24;;;;;;;;;;;;;;;;;;5037201;28;20064;-82
2023/06/28 12:57:50;;;;;;;23.05;11.98;;;;;;;;;;5052237;28;20353;-82
2023/06/28 13:00:16;;;;;;;;;;;;;;;;;;5051728;28;20452;-80
2023/06/28 13:02:42;;;;;;;19.00;12.48;;;;;;;;;;5068064;28;19960;-80
2023/06/28 13:05:08;;;;;;;;;;;;;;;;;;5053273;28;20048;-78
2023/06/28 13:07:35;;;;;;;20.83;12.00;;;;;;;;;;5068713;28;20353;-79
2023/06/28 13:10:01;;;;;;;23.17;13.23;;;;;;;;;;5067969;28;20060;-82
2023/06/28 13:12:27;;;;;;;23.67;13.20;;;;;;;;;;5050486;28;20051;-79
2023/06/28 13:14:53;;;;;;;;;;;;;;;;;;5044563;28;20048;-80
2023/06/28 13:17:20;;;;;;;22.52;13.88;;;;;;;;;;5069362;28;19921;-79
2023/06/28 13:19:46;;;;;;;21.17;14.23;;;;;;;;;;5051851;28;20062;-80
2023/06/28 13:22:12;;;;;;;;;;;;;;;;;;5068176;28;20145;-80
2023/06/28 13:24:38;;;;;;;24.25;14.48;;;;;;;;;;5068863;28;20372;-84
2023/06/28 13:27:04;;;;;;;20.88;13.57;;;;;;;;;;5068482;28;20037;-84
2023/06/28 13:29:31;;;;;;;23.63;14.82;;;;;;;;;;5052711;28;20044;-84
2023/06/28 13:31:56;;;;;;;;;;;;;;;;;;5068970;28;20052;-83
2023/06/28 13:34:23;;;;;;;28.45;14.80;;;;;;;;;;5080836;28;20501;-85
2023/06/28 13:36:49;;;;;;;23.25;14.68;;;;;;;;;;5062454;28;20392;-87
2023/06/28 13:39:15;;;;;;;;;;;;;;;;;;5058466;28;20152;-81
2023/06/28 13:41:42;;;;;;;23.27;14.45;;;;;;;;;;5083158;28;19928;-86
2023/06/28 13:44:08;;;;;;;24.33;14.48;;;;;;;;;;5075502;28;20051;-88
2023/06/28 13:46:34;;;;;;;;;;;;;;;;;;5086126;28;20049;-88
2023/06/28 13:49:00;;;;;;;24.05;14.32;;;;;;;;;;5074357;28;19920;-87
2023/06/28 13:51:26;;;;;;;;;;;;;;;;;;5070025;28;20126;-88
2023/06/28 13:53:54;;;;;;;21.65;13.88;;;;;;;;;;5053831;28;19920;-87
2023/06/28 13:56:20;;;;;;;23.70;14.30;;;;;;;;;;5053634;28;20049;-87
2023/06/28 13:58:46;;;;;;;;;;;;;;;;;;5037822;28;20044;-87
2023/06/28 14:01:13;;;;;;;30.63;15.50;;;;;;;;;;5053733;28;19935;-87
2023/06/28 14:03:39;;;;;;;28.70;15.73;;;;;;;;;;5068577;28;20119;-87
2023/06/28 14:06:05;;;;;;;;;;;;;;;;;;5051564;28;20052;-87
2023/06/28 14:08:31;;;;;;;26.98;15.48;;;;;;;;;;5061390;28;19921;-87
2023/06/28 14:10:58;;;;;;;28.83;15.60;;;;;;;;;;5051486;28;20048;-89
2023/06/28 14:13:24;;;;;;;27.33;15.70;;;;;;;;;;5050409;28;20048;-89
2023/06/28 14:15:50;;;;;;;;;;;;;;;;;;5051531;28;20036;-92
2023/06/28 14:18:16;;;;;;;31.63;15.95;;;;;;;;;;5049610;28;19921;-90
2023/06/28 14:20:42;;;;;;;;;;;;;;;;;;5051716;28;20045;-89
2023/06/28 14:23:08;;;;;;;29.10;15.48;;;;;;;;;;5050638;28;19921;-90
2023/06/28 14:25:34;;;;;;;;;;;;;;;;;;5050966;28;20121;-90
2023/06/28 14:28:00;;;;;;;30.85;16.15;;;;;;;;;;5054300;28;19971;-90
2023/06/28 14:30:26;;;;;;;;;;;;;;;;;;5070985;28;20048;-88
2023/06/28 14:32:52;;;;;;;28.90;16.57;;;;;;;;;;5070230;28;19982;-90
2023/06/28 14:35:21;;;;;;;29.98;16.23;;;;;;;;;;5050606;28;20287;-87
2023/06/28 14:37:48;;;;;;;32.83;16.95;;;;;;;;;;5055503;28;20068;-87
2023/06/28 14:40:14;;;;;;;30.67;16.42;;;;;;;;;;5069974;28;20106;-86
2023/06/28 14:42:40;;;;;;;32.45;16.17;;;;;;;;;;5053050;28;20052;-89
2023/06/28 14:45:08;;;;;;;29.10;16.33;;;;;;;;;;5069636;28;20485;-78
2023/06/28 14:47:34;;;;;;;27.48;15.85;;;;;;;;;;5050454;28;20071;-81
2023/06/28 14:50:00;;;;;;;;;;;;;;;;;;5073628;28;20083;-83